createdAt,value
2019-05-05T00:01:30.272Z,3.92
2019-05-05T00:04:10.902Z,5.78
2019-05-05T00:06:40.681Z,9.00
2019-05-05T00:09:10.628Z,12.73
2019-05-05T00:11:42.008Z,7.93
2019-05-05T00:14:15.787Z,15.03
2019-05-05T00:16:56.433Z,9.28
2019-05-05T00:19:32.919Z,11.68
2019-05-05T00:21:57.698Z,7.53
2019-05-05T00:24:27.560Z,8.03
2019-05-05T00:26:57.085Z,6.92
2019-05-05T00:29:27.052Z,9.40
2019-05-05T00:31:56.928Z,7.63
2019-05-05T00:34:26.828Z,14.00
2019-05-05T00:36:56.359Z,10.43
2019-05-05T00:39:26.312Z,8.63
2019-05-05T00:41:56.130Z,13.30
2019-05-05T00:44:26.140Z,9.58
2019-05-05T00:46:57.708Z,9.80
2019-05-05T00:49:29.272Z,9.85
2019-05-05T00:51:59.446Z,8.73
2019-05-05T00:54:29.225Z,13.68
2019-05-05T00:57:12.108Z,8.58
2019-05-05T00:59:42.034Z,12.85
2019-05-05T01:02:16.306Z,12.00
2019-05-05T01:05:04.489Z,7.10
2019-05-05T01:07:35.124Z,8.85
2019-05-05T01:10:06.886Z,12.88
2019-05-05T01:12:36.565Z,11.18
2019-05-05T01:15:27.634Z,8.38
2019-05-05T01:20:26.075Z,10.63
2019-05-05T01:22:55.945Z,13.43
2019-05-05T01:25:27.813Z,8.00
2019-05-05T01:27:57.526Z,7.37
2019-05-05T01:30:29.162Z,7.92
2019-05-05T01:33:00.541Z,11.30
2019-05-05T01:35:30.542Z,7.67
2019-05-05T01:38:11.264Z,13.87
2019-05-05T01:40:45.499Z,7.65
2019-05-05T01:43:15.461Z,8.78
2019-05-05T01:45:45.365Z,11.73
2019-05-05T01:48:15.357Z,8.20
2019-05-05T01:50:45.357Z,9.55
2019-05-05T01:53:15.294Z,8.25
2019-05-05T01:55:45.420Z,3.30
2019-05-05T01:58:16.085Z,7.40
2019-05-05T02:00:46.090Z,6.37
2019-05-05T02:03:16.346Z,10.20
2019-05-05T02:05:46.145Z,8.98
2019-05-05T02:08:35.128Z,9.43
2019-05-05T02:11:05.382Z,6.35
2019-05-05T02:13:35.222Z,10.82
2019-05-05T02:16:05.291Z,6.30
2019-05-05T02:18:34.982Z,10.58
2019-05-05T02:21:06.359Z,6.42
2019-05-05T02:23:56.931Z,7.78
2019-05-05T02:26:26.836Z,11.75
2019-05-05T02:29:00.832Z,5.40
2019-05-05T02:31:48.307Z,10.43
2019-05-05T02:34:17.958Z,6.80
2019-05-05T02:36:47.779Z,5.37
2019-05-05T02:39:17.314Z,4.80
2019-05-05T02:41:47.062Z,5.55
2019-05-05T02:44:18.196Z,7.30
2019-05-05T02:46:50.443Z,7.35
2019-05-05T02:49:20.415Z,7.62
2019-05-05T02:51:50.994Z,8.37
2019-05-05T02:54:21.969Z,4.90
2019-05-05T02:59:35.287Z,5.45
2019-05-05T03:02:06.697Z,3.17
2019-05-05T03:04:37.005Z,6.10
2019-05-05T03:07:09.337Z,4.85
2019-05-05T03:09:39.713Z,6.45
2019-05-05T03:12:11.087Z,10.65
2019-05-05T03:14:44.601Z,5.62
2019-05-05T03:17:15.607Z,5.00
2019-05-05T03:22:14.941Z,4.12
2019-05-05T03:24:45.985Z,5.13
2019-05-05T03:27:16.205Z,5.80
2019-05-05T03:29:46.946Z,7.92
2019-05-05T03:32:16.806Z,6.80
2019-05-05T03:34:46.697Z,7.97
2019-05-05T03:37:16.779Z,8.30
2019-05-05T03:39:48.297Z,5.72
2019-05-05T03:42:24.477Z,3.80
2019-05-05T03:44:56.308Z,6.78
2019-05-05T03:47:26.314Z,5.60
2019-05-05T03:49:56.718Z,10.27
2019-05-05T03:52:26.749Z,4.85
2019-05-05T03:54:56.776Z,7.20
2019-05-05T03:57:26.724Z,5.90
2019-05-05T03:59:57.101Z,9.23
2019-05-05T04:02:34.451Z,5.95
2019-05-05T04:05:06.316Z,5.67
2019-05-05T04:07:36.360Z,7.35
2019-05-05T04:10:07.376Z,5.65
2019-05-05T04:12:37.302Z,6.45
2019-05-05T04:15:07.309Z,7.40
2019-05-05T04:17:44.718Z,6.77
2019-05-05T04:20:19.702Z,7.80
2019-05-05T04:22:49.479Z,7.42
2019-05-05T04:25:18.997Z,7.75
2019-05-05T04:27:48.917Z,11.38
2019-05-05T04:30:18.821Z,4.77
2019-05-05T04:32:48.664Z,6.42
2019-05-05T04:35:19.384Z,7.70
2019-05-05T04:37:48.913Z,7.50
2019-05-05T04:40:18.425Z,7.37
2019-05-05T04:42:47.961Z,5.97
2019-05-05T04:45:17.954Z,8.08
2019-05-05T04:47:55.729Z,9.40
2019-05-05T04:50:30.272Z,11.43
2019-05-05T04:53:01.621Z,8.13
2019-05-05T04:55:34.793Z,12.23
2019-05-05T04:58:08.084Z,10.18
2019-05-05T05:00:37.902Z,5.37
2019-05-05T05:06:08.149Z,11.53
2019-05-05T05:08:37.960Z,7.67
2019-05-05T05:11:07.554Z,14.45
2019-05-05T05:13:37.356Z,8.08
2019-05-05T05:16:07.372Z,9.48
2019-05-05T05:18:37.206Z,4.75
2019-05-05T05:21:07.107Z,9.35
2019-05-05T05:23:36.637Z,4.72
2019-05-05T05:26:06.527Z,8.38
2019-05-05T05:28:36.449Z,9.93
2019-05-05T05:31:06.353Z,12.60
2019-05-05T05:33:36.277Z,8.70
2019-05-05T05:36:06.248Z,6.80
2019-05-05T05:38:36.109Z,8.43
2019-05-05T05:41:07.658Z,8.60
2019-05-05T05:43:39.201Z,8.93
2019-05-05T05:46:10.780Z,8.13
2019-05-05T05:48:43.435Z,10.82
2019-05-05T05:51:14.729Z,13.55
2019-05-05T05:53:44.598Z,10.05
2019-05-05T05:56:14.525Z,12.82
2019-05-05T05:58:44.423Z,7.62
2019-05-05T06:01:14.742Z,10.72
2019-05-05T06:03:44.659Z,5.62
2019-05-05T06:06:14.196Z,10.00
2019-05-05T06:08:44.107Z,11.57
2019-05-05T06:11:14.091Z,14.63
2019-05-05T06:13:45.053Z,10.75
2019-05-05T06:16:15.569Z,12.00
2019-05-05T06:18:45.384Z,7.27
2019-05-05T06:21:15.405Z,12.60
2019-05-05T06:23:45.653Z,6.07
2019-05-05T06:26:15.639Z,8.38
2019-05-05T06:28:45.446Z,14.20
2019-05-05T06:31:15.256Z,12.98
2019-05-05T06:33:44.904Z,10.20
2019-05-05T06:36:14.793Z,15.72
2019-05-05T06:38:44.321Z,14.83
2019-05-05T06:41:27.625Z,13.65
2019-05-05T06:44:14.268Z,14.18
2019-05-05T06:46:48.570Z,14.90
2019-05-05T06:49:19.188Z,11.12
2019-05-05T06:51:48.730Z,11.28
2019-05-05T06:54:18.688Z,13.43
2019-05-05T06:56:48.624Z,9.57
2019-05-05T06:59:18.523Z,12.30
2019-05-05T07:01:48.534Z,17.98
2019-05-05T07:04:19.186Z,14.30
2019-05-05T07:06:54.107Z,13.95
2019-05-05T07:09:20.682Z,11.30
2019-05-05T07:11:50.594Z,12.43
2019-05-05T07:14:20.510Z,12.77
2019-05-05T07:16:50.400Z,14.15
2019-05-05T07:19:20.298Z,16.52
2019-05-05T07:21:50.285Z,12.93
2019-05-05T07:24:20.136Z,12.58
2019-05-05T07:26:50.063Z,14.85
2019-05-05T07:29:19.968Z,12.75
2019-05-05T07:31:49.866Z,15.93
2019-05-05T07:34:20.731Z,12.53
2019-05-05T07:39:19.697Z,12.60
2019-05-05T07:41:49.930Z,18.17
2019-05-05T07:44:27.684Z,15.98
2019-05-05T07:46:51.468Z,22.10
2019-05-05T07:49:21.389Z,15.70
2019-05-05T07:51:51.250Z,14.35
2019-05-05T07:54:21.188Z,14.13
2019-05-05T07:56:51.061Z,15.50
2019-05-05T07:59:20.995Z,16.40
2019-05-05T08:01:50.900Z,10.80
2019-05-05T08:04:20.819Z,8.90
2019-05-05T08:06:50.338Z,10.57
2019-05-05T08:09:21.805Z,14.23
2019-05-05T08:11:51.358Z,11.30
2019-05-05T08:14:20.897Z,14.38
2019-05-05T08:16:55.156Z,20.90
2019-05-05T08:19:32.093Z,12.10
2019-05-05T08:22:03.616Z,9.58
2019-05-05T08:24:34.877Z,12.93
2019-05-05T08:27:21.906Z,16.27
2019-05-05T08:29:55.948Z,19.35
2019-05-05T08:32:27.156Z,13.68
2019-05-05T08:35:00.535Z,15.53
2019-05-05T08:37:28.256Z,13.40
2019-05-05T08:39:58.139Z,15.35
2019-05-05T08:42:27.665Z,12.60
2019-05-05T08:44:57.551Z,13.85
2019-05-05T08:47:28.312Z,14.15
2019-05-05T08:49:58.196Z,11.00
2019-05-05T08:52:27.859Z,10.98
2019-05-05T08:54:57.620Z,10.48
2019-05-05T08:57:27.206Z,12.35
2019-05-05T08:59:57.104Z,12.13
2019-05-05T09:02:27.056Z,16.70
2019-05-05T09:04:56.951Z,9.00
2019-05-05T09:07:26.477Z,10.18
2019-05-05T09:09:58.068Z,12.58
2019-05-05T09:12:28.921Z,17.80
2019-05-05T09:14:58.692Z,11.35
2019-05-05T09:17:28.579Z,9.03
2019-05-05T09:19:58.492Z,14.83
2019-05-05T09:22:28.577Z,9.55
2019-05-05T09:25:01.192Z,14.85
2019-05-05T09:27:38.831Z,10.32
2019-05-05T09:30:10.777Z,12.60
2019-05-05T09:32:40.843Z,14.10
2019-05-05T09:35:10.798Z,11.00
2019-05-05T09:37:40.680Z,13.38
2019-05-05T09:40:10.833Z,13.35
2019-05-05T09:42:40.960Z,10.55
2019-05-05T09:45:10.991Z,12.90
2019-05-05T09:47:40.681Z,17.33
2019-05-05T09:50:11.140Z,12.78
2019-05-05T09:52:40.922Z,10.85
2019-05-05T09:55:11.105Z,11.40
2019-05-05T09:57:40.730Z,11.33
2019-05-05T10:00:14.020Z,15.03
2019-05-05T10:02:44.252Z,13.32
2019-05-05T10:05:14.713Z,13.93
2019-05-05T10:07:44.563Z,19.20
2019-05-05T10:10:14.733Z,22.60
2019-05-05T10:12:44.654Z,12.30
2019-05-05T10:15:15.956Z,14.17
2019-05-05T10:17:45.791Z,13.13
2019-05-05T10:20:16.015Z,12.93
2019-05-05T10:22:45.624Z,9.90
2019-05-05T10:25:37.451Z,11.55
2019-05-05T10:28:07.149Z,15.93
2019-05-05T10:30:37.114Z,13.62
2019-05-05T10:33:08.518Z,16.80
2019-05-05T10:35:39.400Z,15.50
2019-05-05T10:38:09.336Z,16.42
2019-05-05T10:40:39.221Z,16.53
2019-05-05T10:43:09.105Z,13.40
2019-05-05T10:45:38.998Z,19.23
2019-05-05T10:48:09.261Z,10.95
2019-05-05T10:50:38.859Z,14.23
2019-05-05T10:53:08.742Z,11.25
2019-05-05T10:55:38.266Z,18.20
2019-05-05T10:58:07.815Z,10.25
2019-05-05T11:00:44.329Z,14.33
2019-05-05T11:03:15.137Z,12.47
2019-05-05T11:08:15.550Z,9.78
2019-05-05T11:10:45.352Z,17.60
2019-05-05T11:13:15.193Z,12.95
2019-05-05T11:15:45.917Z,10.80
2019-05-05T11:18:15.808Z,11.55
2019-05-05T11:21:04.834Z,14.17
2019-05-05T11:23:34.728Z,12.23
2019-05-05T11:26:04.773Z,14.20
2019-05-05T11:28:34.748Z,14.47
2019-05-05T11:31:04.730Z,8.45
2019-05-05T11:33:48.446Z,6.73
2019-05-05T11:36:19.982Z,7.15
2019-05-05T11:38:49.901Z,8.85
2019-05-05T11:41:20.632Z,9.40
2019-05-05T11:43:50.553Z,11.22
2019-05-05T11:46:20.477Z,11.35
2019-05-05T11:48:50.365Z,10.75
2019-05-05T11:51:20.310Z,10.53
2019-05-05T11:53:50.195Z,6.43
2019-05-05T11:56:20.191Z,9.05
2019-05-05T11:58:50.098Z,9.77
2019-05-05T12:01:19.948Z,9.13
2019-05-05T12:03:49.885Z,5.75
2019-05-05T12:06:19.942Z,8.73
2019-05-05T12:08:49.694Z,8.98
2019-05-05T12:11:19.603Z,8.78
2019-05-05T12:13:49.514Z,12.88
2019-05-05T12:16:34.499Z,13.03
2019-05-05T12:19:05.325Z,15.13
2019-05-05T12:21:37.300Z,13.68
2019-05-05T12:24:08.466Z,14.68
2019-05-05T12:26:48.744Z,12.82
2019-05-05T12:29:18.666Z,16.30
2019-05-05T12:31:49.113Z,13.93
2019-05-05T12:34:18.732Z,19.07
2019-05-05T12:36:48.293Z,15.80
2019-05-05T12:39:18.222Z,15.55
2019-05-05T12:41:48.085Z,14.50
2019-05-05T12:44:19.250Z,14.73
2019-05-05T12:47:05.789Z,11.85
2019-05-05T12:49:35.422Z,10.38
2019-05-05T12:52:05.132Z,13.45
2019-05-05T12:54:34.848Z,10.98
2019-05-05T12:57:04.519Z,12.10
2019-05-05T12:59:34.268Z,13.22
2019-05-05T13:02:04.533Z,16.40
2019-05-05T13:04:34.141Z,20.97
2019-05-05T13:07:04.953Z,9.83
2019-05-05T13:09:35.559Z,12.35
2019-05-05T13:12:05.380Z,14.30
2019-05-05T13:14:36.715Z,18.75
2019-05-05T13:17:06.719Z,7.85
2019-05-05T13:19:52.833Z,16.62
2019-05-05T13:22:33.780Z,8.25
2019-05-05T13:25:10.669Z,9.45
2019-05-05T13:27:41.916Z,14.45
2019-05-05T13:30:12.172Z,10.03
2019-05-05T13:32:41.722Z,9.23
2019-05-05T13:35:14.219Z,8.20
2019-05-05T13:37:44.397Z,10.40
2019-05-05T13:40:15.304Z,11.18
2019-05-05T13:42:45.088Z,9.50
2019-05-05T13:45:47.775Z,11.40
2019-05-05T13:48:17.337Z,8.80
2019-05-05T13:50:48.909Z,8.65
2019-05-05T13:53:18.773Z,14.80
2019-05-05T13:55:48.661Z,11.83
2019-05-05T13:58:18.627Z,9.80
2019-05-05T14:00:48.500Z,11.67
2019-05-05T14:03:18.433Z,12.40
2019-05-05T14:05:48.325Z,11.07
2019-05-05T14:08:18.237Z,9.58
2019-05-05T14:10:48.179Z,14.80
2019-05-05T14:13:18.156Z,12.63
2019-05-05T14:15:47.998Z,8.57
2019-05-05T14:18:17.887Z,9.60
2019-05-05T14:20:47.426Z,12.60
2019-05-05T14:23:17.677Z,12.37
2019-05-05T14:25:47.286Z,9.88
2019-05-05T14:28:18.261Z,9.58
2019-05-05T14:30:58.886Z,10.72
2019-05-05T14:33:30.316Z,8.08
2019-05-05T14:36:04.800Z,7.92
2019-05-05T14:38:36.459Z,15.28
2019-05-05T14:41:06.340Z,12.18
2019-05-05T14:43:35.953Z,8.83
2019-05-05T14:46:05.834Z,10.18
2019-05-05T14:48:37.208Z,8.35
2019-05-05T14:51:07.441Z,9.08
2019-05-05T14:53:37.186Z,6.97
2019-05-05T14:56:06.776Z,12.10
2019-05-05T14:58:36.601Z,11.97
2019-05-05T15:01:06.192Z,7.78
2019-05-05T15:03:36.027Z,8.95
2019-05-05T15:06:07.218Z,13.65
2019-05-05T15:08:47.522Z,10.75
2019-05-05T15:11:28.017Z,13.75
2019-05-05T15:13:58.712Z,8.05
2019-05-05T15:16:28.650Z,8.78
2019-05-05T15:18:58.541Z,8.27
2019-05-05T15:21:28.567Z,8.95
2019-05-05T15:24:04.809Z,8.28
2019-05-05T15:26:34.514Z,9.58
2019-05-05T15:29:04.436Z,8.83
2019-05-05T15:31:34.326Z,6.62
2019-05-05T15:34:04.283Z,6.40
2019-05-05T15:36:34.101Z,8.07
2019-05-05T15:39:07.381Z,7.25
2019-05-05T15:41:37.210Z,8.30
2019-05-05T15:44:07.114Z,14.87
2019-05-05T15:46:37.333Z,5.58
2019-05-05T15:49:06.956Z,9.38
2019-05-05T15:51:37.066Z,7.15
2019-05-05T15:54:06.777Z,8.63
2019-05-05T15:56:36.770Z,11.75
2019-05-05T15:59:06.585Z,7.58
2019-05-05T16:01:36.509Z,5.53
2019-05-05T16:04:06.442Z,5.15
2019-05-05T16:06:36.344Z,7.83
2019-05-05T16:09:07.593Z,5.40
2019-05-05T16:11:37.394Z,7.12
2019-05-05T16:14:07.323Z,7.65
2019-05-05T16:16:38.840Z,6.92
2019-05-05T16:19:27.953Z,4.22
2019-05-05T16:22:01.366Z,6.37
2019-05-05T16:24:36.601Z,4.42
2019-05-05T16:27:18.818Z,12.18
2019-05-05T16:29:38.765Z,8.35
2019-05-05T16:32:21.193Z,11.65
2019-05-05T16:34:40.222Z,7.55
2019-05-05T16:37:10.154Z,11.23
2019-05-05T16:39:40.057Z,14.80
2019-05-05T16:42:09.954Z,6.40
2019-05-05T16:44:39.885Z,9.80
2019-05-05T16:47:09.838Z,7.95
2019-05-05T16:49:39.744Z,7.80
2019-05-05T16:52:11.313Z,10.23
2019-05-05T16:54:42.809Z,8.75
2019-05-05T16:57:14.277Z,10.20
2019-05-05T16:59:44.228Z,13.58
2019-05-05T17:02:14.375Z,11.88
2019-05-05T17:04:44.118Z,8.88
2019-05-05T17:07:14.280Z,7.35
2019-05-05T17:09:43.977Z,7.85
2019-05-05T17:12:14.210Z,7.60
2019-05-05T17:14:45.882Z,9.20
2019-05-05T17:17:34.212Z,8.83
2019-05-05T17:20:14.110Z,7.58
2019-05-05T17:22:48.450Z,9.40
2019-05-05T17:25:20.405Z,11.57
2019-05-05T17:27:51.284Z,11.55
2019-05-05T17:30:24.505Z,11.80
2019-05-05T17:32:54.500Z,11.95
2019-05-05T17:35:24.575Z,7.07
2019-05-05T17:37:56.119Z,14.10
2019-05-05T17:40:27.706Z,7.87
2019-05-05T17:43:24.395Z,5.72
2019-05-05T17:46:00.369Z,7.15
2019-05-05T17:48:40.545Z,7.08
2019-05-05T17:51:13.902Z,4.60
2019-05-05T17:54:01.680Z,8.48
2019-05-05T17:56:33.490Z,5.17
2019-05-05T17:59:03.545Z,6.28
2019-05-05T18:01:33.699Z,8.03
2019-05-05T18:04:04.145Z,5.22
2019-05-05T18:06:38.365Z,5.72
2019-05-05T18:09:11.198Z,5.47
2019-05-05T18:11:48.828Z,7.25
2019-05-05T18:14:20.093Z,7.47
2019-05-05T18:16:50.029Z,8.23
2019-05-05T18:19:19.925Z,3.97
2019-05-05T18:21:49.838Z,9.13
2019-05-05T18:24:19.765Z,16.07
2019-05-05T18:26:49.664Z,9.53
2019-05-05T18:29:19.254Z,9.18
2019-05-05T18:31:49.093Z,12.58
2019-05-05T18:34:19.015Z,11.38
2019-05-05T18:36:48.926Z,11.85
2019-05-05T18:39:19.660Z,16.80
2019-05-05T18:41:53.961Z,10.93
2019-05-05T18:44:25.301Z,11.05
2019-05-05T18:47:15.733Z,14.10
2019-05-05T18:49:43.485Z,18.42
2019-05-05T18:52:13.902Z,12.40
2019-05-05T18:54:43.845Z,10.20
2019-05-05T18:57:13.660Z,22.02
2019-05-05T18:59:44.829Z,13.03
2019-05-05T19:02:34.746Z,10.80
2019-05-05T19:05:11.201Z,15.78
2019-05-05T19:07:53.052Z,10.58
2019-05-05T19:10:13.965Z,10.15
2019-05-05T19:12:44.289Z,11.65
2019-05-05T19:15:14.658Z,7.80
2019-05-05T19:17:44.579Z,10.18
2019-05-05T19:20:16.395Z,14.93
2019-05-05T19:22:46.041Z,12.23
2019-05-05T19:25:15.988Z,17.75
2019-05-05T19:27:46.928Z,13.93
2019-05-05T19:32:45.705Z,12.85
2019-05-05T19:35:15.693Z,17.90
2019-05-05T19:37:45.902Z,13.83
2019-05-05T19:40:15.796Z,14.05
2019-05-05T19:42:46.330Z,18.27
2019-05-05T19:45:16.250Z,11.40
2019-05-05T19:47:45.995Z,23.52
2019-05-05T19:50:19.109Z,15.58
2019-05-05T19:52:48.700Z,11.55
2019-05-05T19:55:18.638Z,13.70
2019-05-05T19:57:48.596Z,14.97
2019-05-05T20:00:19.183Z,13.48
2019-05-05T20:03:01.429Z,15.98
2019-05-05T20:05:20.741Z,8.35
2019-05-05T20:07:50.645Z,16.00
2019-05-05T20:10:20.573Z,14.23
2019-05-05T20:12:50.480Z,14.00
2019-05-05T20:15:24.712Z,20.30
2019-05-05T20:17:54.485Z,17.48
2019-05-05T20:20:24.348Z,16.35
2019-05-05T20:22:54.764Z,23.62
2019-05-05T20:25:24.564Z,22.75
2019-05-05T20:27:56.076Z,21.48
2019-05-05T20:30:26.138Z,14.83
2019-05-05T20:33:09.546Z,14.10
2019-05-05T20:35:41.236Z,11.57
2019-05-05T20:38:14.264Z,14.40
2019-05-05T20:40:45.760Z,21.68
2019-05-05T20:43:15.276Z,15.55
2019-05-05T20:45:45.174Z,13.10
2019-05-05T20:48:14.885Z,19.60
2019-05-05T20:50:44.583Z,16.90
2019-05-05T20:53:14.156Z,16.95
2019-05-05T20:55:44.733Z,17.07
2019-05-05T20:58:15.165Z,17.87
2019-05-05T21:00:44.710Z,16.85
2019-05-05T21:03:14.586Z,13.10
2019-05-05T21:05:44.297Z,21.33
2019-05-05T21:08:14.220Z,17.42
2019-05-05T21:10:44.309Z,17.85
2019-05-05T21:13:14.455Z,16.23
2019-05-05T21:15:47.348Z,15.83
2019-05-05T21:18:17.021Z,19.42
2019-05-05T21:20:47.653Z,16.73
2019-05-05T21:23:28.077Z,18.12
2019-05-05T21:26:13.849Z,14.00
2019-05-05T21:28:44.481Z,23.40
2019-05-05T21:31:14.575Z,21.07
2019-05-05T21:33:45.223Z,22.70
2019-05-05T21:36:15.517Z,18.17
2019-05-05T21:38:45.441Z,14.85
2019-05-05T21:41:15.349Z,16.73
2019-05-05T21:43:46.098Z,16.62
2019-05-05T21:46:16.010Z,17.62
2019-05-05T21:48:45.917Z,14.13
2019-05-05T21:51:26.533Z,15.08
2019-05-05T21:53:57.717Z,19.27
2019-05-05T21:56:45.804Z,19.87
2019-05-05T21:59:15.469Z,19.92
2019-05-05T22:01:49.314Z,16.95
2019-05-05T22:04:16.985Z,17.65
2019-05-05T22:06:46.845Z,15.32
2019-05-05T22:09:16.776Z,17.85
2019-05-05T22:11:46.666Z,14.93
2019-05-05T22:14:16.633Z,20.15
2019-05-05T22:16:46.510Z,15.93
2019-05-05T22:19:18.006Z,14.60
2019-05-05T22:21:51.949Z,16.50
2019-05-05T22:24:22.742Z,16.55
2019-05-05T22:26:54.126Z,18.05
2019-05-05T22:29:24.940Z,21.42
2019-05-05T22:31:55.049Z,19.12
2019-05-05T22:34:25.322Z,19.37
2019-05-05T22:36:55.251Z,18.67
2019-05-05T22:39:25.154Z,20.82
2019-05-05T22:41:54.722Z,28.02
2019-05-05T22:44:24.566Z,23.65
2019-05-05T22:46:54.178Z,21.68
2019-05-05T22:49:24.285Z,19.27
2019-05-05T22:51:54.325Z,18.92
2019-05-05T22:54:24.210Z,17.23
2019-05-05T22:56:54.219Z,19.93
2019-05-05T22:59:26.092Z,15.95
2019-05-05T23:01:55.629Z,12.60
2019-05-05T23:04:30.652Z,22.75
2019-05-05T23:07:11.022Z,20.57
2019-05-05T23:09:40.622Z,17.80
2019-05-05T23:12:10.434Z,16.87
2019-05-05T23:14:39.958Z,18.35
2019-05-05T23:17:26.538Z,19.52
2019-05-05T23:20:00.970Z,20.20
2019-05-05T23:22:41.186Z,18.15
2019-05-05T23:25:19.916Z,21.62
2019-05-05T23:27:50.431Z,21.12
2019-05-05T23:30:23.816Z,18.45
2019-05-05T23:32:54.833Z,18.48
2019-05-05T23:35:24.867Z,21.42
2019-05-05T23:37:55.305Z,17.07
2019-05-05T23:40:27.361Z,16.30
2019-05-05T23:42:58.248Z,15.25
2019-05-05T23:47:56.857Z,16.32
2019-05-05T23:50:26.754Z,20.85
2019-05-05T23:52:56.667Z,18.47
2019-05-05T23:55:26.195Z,13.58
2019-05-05T23:57:56.120Z,19.50
